RAM414 GMMX-GMMN
Flight info
| Callsign | RAM414 |
|---|---|
| Flight time | N/A |
| Altitude | 18000 |
| Route | MABAP R722 FOBAC |
| Aircraft | B738/M-SDE2E3FGHIRWXY/LB1 |
Departure
| Time | N/A |
|---|---|
| Airport | Marrakesh Menara Airport (GMMX) |
Arrival
| Time | 2026-05-05 21:46 |
|---|---|
| Airport | Mohammed V International Airport (GMMN) |
| Time | Latitude | Longitude | Altitude | Speed | Heading |
|---|---|---|---|---|---|
| 2026-05-05 21:38 | 33.08837 | -7.59065 | 3631 ft | 193 kts | 68° |
| 2026-05-05 21:39 | 33.09318 | -7.57579 | 3635 ft | 194 kts | 68° |
| 2026-05-05 21:39 | 33.09804 | -7.56075 | 3617 ft | 195 kts | 68° |
| 2026-05-05 21:39 | 33.10291 | -7.54564 | 3610 ft | 195 kts | 68° |
| 2026-05-05 21:39 | 33.10779 | -7.53070 | 3614 ft | 193 kts | 65° |
| 2026-05-05 21:40 | 33.11612 | -7.51859 | 3612 ft | 189 kts | 31° |
| 2026-05-05 21:40 | 33.12829 | -7.51350 | 3581 ft | 184 kts | 359° |
| 2026-05-05 21:40 | 33.14049 | -7.51553 | 3607 ft | 174 kts | 348° |
| 2026-05-05 21:40 | 33.15205 | -7.51857 | 3585 ft | 166 kts | 346° |
| 2026-05-05 21:41 | 33.16307 | -7.52201 | 3648 ft | 163 kts | 344° |
| 2026-05-05 21:41 | 33.17404 | -7.52563 | 3610 ft | 160 kts | 343° |
| 2026-05-05 21:41 | 33.18422 | -7.52908 | 3588 ft | 148 kts | 343° |
| 2026-05-05 21:41 | 33.19390 | -7.53240 | 3597 ft | 143 kts | 343° |
| 2026-05-05 21:42 | 33.20361 | -7.53573 | 3594 ft | 147 kts | 343° |
| 2026-05-05 21:42 | 33.21354 | -7.53916 | 3422 ft | 149 kts | 343° |
| 2026-05-05 21:42 | 33.22343 | -7.54256 | 3239 ft | 146 kts | 343° |
| 2026-05-05 21:42 | 33.23305 | -7.54586 | 3047 ft | 143 kts | 343° |
| 2026-05-05 21:43 | 33.24253 | -7.54913 | 2868 ft | 140 kts | 343° |
| 2026-05-05 21:43 | 33.25194 | -7.55237 | 2678 ft | 141 kts | 342° |
| 2026-05-05 21:43 | 33.26142 | -7.55562 | 2490 ft | 145 kts | 341° |
| 2026-05-05 21:43 | 33.27123 | -7.55902 | 2289 ft | 149 kts | 341° |
| 2026-05-05 21:44 | 33.28099 | -7.56239 | 2101 ft | 143 kts | 346° |
| 2026-05-05 21:44 | 33.29035 | -7.56559 | 1890 ft | 136 kts | 346° |
| 2026-05-05 21:44 | 33.29945 | -7.56873 | 1734 ft | 137 kts | 346° |
| 2026-05-05 21:44 | 33.30873 | -7.57191 | 1541 ft | 140 kts | 346° |
| 2026-05-05 21:45 | 33.31803 | -7.57512 | 1361 ft | 138 kts | 346° |
| 2026-05-05 21:45 | 33.32715 | -7.57826 | 1219 ft | 134 kts | 346° |
| 2026-05-05 21:45 | 33.33626 | -7.58139 | 1007 ft | 136 kts | 346° |
| 2026-05-05 21:45 | 33.34541 | -7.58454 | 819 ft | 137 kts | 345° |
| 2026-05-05 21:46 | 33.35458 | -7.58769 | 662 ft | 135 kts | 345° |
| 2026-05-05 21:46 | 33.36270 | -7.59048 | 651 ft | 103 kts | 344° |
| 2026-05-05 21:46 | 33.36792 | -7.59226 | 649 ft | 50 kts | 344° |
| 2026-05-05 21:46 | 33.37002 | -7.59298 | 651 ft | 26 kts | 344° |
| 2026-05-05 21:47 | 33.37150 | -7.59328 | 651 ft | 17 kts | 1° |
| 2026-05-05 21:47 | 33.37267 | -7.59305 | 652 ft | 17 kts | 10° |
| 2026-05-05 21:47 | 33.37378 | -7.59279 | 655 ft | 15 kts | 15° |
| 2026-05-05 21:47 | 33.37456 | -7.59254 | 652 ft | 12 kts | 15° |
| 2026-05-05 21:48 | 33.37537 | -7.59227 | 652 ft | 12 kts | 15° |
| 2026-05-05 21:48 | 33.37628 | -7.59197 | 649 ft | 13 kts | 15° |
| 2026-05-05 21:48 | 33.37683 | -7.59179 | 648 ft | 7 kts | 14° |
| 2026-05-05 21:48 | 33.37727 | -7.59164 | 645 ft | 8 kts | 18° |
| 2026-05-05 21:49 | 33.37785 | -7.59130 | 644 ft | 10 kts | 36° |
| 2026-05-05 21:49 | 33.37823 | -7.59065 | 645 ft | 7 kts | 70° |
| 2026-05-05 21:49 | 33.37836 | -7.59012 | 648 ft | 7 kts | 73° |
| 2026-05-05 21:49 | 33.37855 | -7.58935 | 652 ft | 12 kts | 74° |
| 2026-05-05 21:50 | 33.37871 | -7.58858 | 652 ft | 9 kts | 86° |
| 2026-05-05 21:50 | 33.37833 | -7.58801 | 653 ft | 10 kts | 155° |
| 2026-05-05 21:50 | 33.37756 | -7.58773 | 652 ft | 14 kts | 164° |
| 2026-05-05 21:50 | 33.37639 | -7.58733 | 654 ft | 20 kts | 164° |
| 2026-05-05 21:51 | 33.37485 | -7.58680 | 652 ft | 25 kts | 164° |
| 2026-05-05 21:51 | 33.37301 | -7.58618 | 653 ft | 30 kts | 164° |
| 2026-05-05 21:51 | 33.37089 | -7.58543 | 653 ft | 33 kts | 163° |
| 2026-05-05 21:51 | 33.36859 | -7.58465 | 652 ft | 35 kts | 164° |
| 2026-05-05 21:52 | 33.36427 | -7.58318 | 653 ft | 28 kts | 163° |
| 2026-05-05 21:52 | 33.36311 | -7.58279 | 651 ft | 11 kts | 165° |
| 2026-05-05 21:52 | 33.36256 | -7.58239 | 652 ft | 9 kts | 116° |
| 2026-05-05 21:53 | 33.36260 | -7.58165 | 652 ft | 8 kts | 75° |
| 2026-05-05 21:53 | 33.36262 | -7.58101 | 653 ft | 8 kts | 116° |
| 2026-05-05 21:53 | 33.36219 | -7.58069 | 654 ft | 7 kts | 161° |
| 2026-05-05 21:53 | 33.36173 | -7.58053 | 654 ft | 6 kts | 165° |
| 2026-05-05 21:54 | 33.36132 | -7.58040 | 652 ft | 6 kts | 161° |
| 2026-05-05 21:54 | 33.36103 | -7.58009 | 654 ft | 6 kts | 117° |
| 2026-05-05 21:54 | 33.36112 | -7.57965 | 652 ft | 1 kts | 75° |
| 2026-05-05 21:54 | 33.36112 | -7.57963 | 652 ft | 1 kts | 74° |
| 2026-05-05 21:55 | 33.36114 | -7.57955 | 652 ft | 1 kts | 74° |
| 2026-05-05 21:55 | 33.36116 | -7.57948 | 652 ft | 1 kts | 75° |
| 2026-05-05 21:55 | 33.36117 | -7.57943 | 652 ft | 1 kts | 75° |